Coonamble, New South Wales

1:57 AM AEST on August 31, 2015 (GMT +1000)
Coonamble | | Change Station
CLOSE
Current Station
Airport
Location: Coonamble Airport,
Elevation: 604 ft
Nearby Weather Stations

Elev 604 ft 30.98 °S, 148.38 °E | Updated 57 minutes ago

Clear
Clear
37 °F
Feels Like 34 °F
N
5
Wind Variable Wind from SSW
Gusts mph

Today
High -- | Low -- °F
--% Chance of Precip.
Yesterday
High -- | Low -- °F
Precip. -- in
6:24 AM 5:49 PM
Full, 99% visible
Pressure 30.09 in
Visibility -9999.0 miles
Clouds
Windchill 34 °F
Dew Point 37 °F
Humidity 100%
Rainfall 0.00 in
Snow Depth Not available.
UV Not available.
Pollen Not available.
Air Quality Not available.
Flu Activity Not available.
METAR YCNM 301500Z AUTO 21004KT //// // ////// 03/03 Q1019
Pressure 30.09 in
Visibility -9999.0 miles
Clouds
Windchill 34 °F
Dew Point 37 °F
Humidity 100%
Rainfall 0.00 in
Snow Depth Not available.
UV Not available.
Pollen Not available.
Air Quality Not available.
Flu Activity Not available.
METAR YCNM 301500Z AUTO 21004KT //// // ////// 03/03 Q1019

10-Day Weather Forecast

×

Almanac

Astronomy

Aug. 31, 2015 Rise Set
Actual Time
Civil Twilight
Nautical Twilight
Astronomical Twilight
Moon
Length of Visible Light
Length of Day
Tomorrow will be .
, % of the Moon is Illuminated

Today's Extremes

Country Highs Country Lows

Community

WunderPhotos

Upload Photos

1,850,997 photos uploaded!

WunderBlogs® & News

Nearby

Air Quality

  Air Quality AQ Index Pollutant
Not available.

Snow Depth

Station Depth Elevation

Earthquake Activity

City Distance Mag. Time & Date
Minimum magnitude displayed is 2.5.

Coastal Water Temperatures

Place Temperature

Stations

Nearby Weather Stations

Station Location Temp. Windchill Dew Point Humidity Wind Precip. Elev Updated Type